Time;durP1;ratioP1;P1;durP2;ratioP2;P2;SDS_P1;SDS_P2;PMS_P1;PMS_P2;Temp;Humidity;BMP_temperature;BMP_pressure;BME280_temperature;BME280_humidity;BME280_pressure;Samples;Min_cycle;Max_cycle;Signal;HPM_P1;HPM_P2
2021/05/19 00:00:09;;;;;;;12.95;8.20;;;;;;;11.30;100.00;100476.69;5254212;28;20028;-80
2021/05/19 00:02:39;;;;;;;10.95;8.10;;;;;;;11.17;100.00;100483.34;5256539;28;20032;-80
2021/05/19 00:05:11;;;;;;;10.95;8.43;;;;;;;11.05;100.00;100482.94;5236040;28;20043;-79
2021/05/19 00:07:41;;;;;;;13.82;8.77;;;;;;;11.02;100.00;100483.94;5248922;28;20039;-79
2021/05/19 00:10:12;;;;;;;11.88;8.77;;;;;;;11.05;100.00;100483.81;5241077;28;20785;-79
2021/05/19 00:12:42;;;;;;;12.23;8.48;;;;;;;11.07;100.00;100486.38;5216166;28;20119;-79
2021/05/19 00:15:12;;;;;;;13.20;9.43;;;;;;;11.01;100.00;100483.16;5248019;28;20029;-79
2021/05/19 00:17:44;;;;;;;13.18;9.75;;;;;;;11.08;100.00;100486.31;5246361;28;20394;-79
2021/05/19 00:20:15;;;;;;;15.25;10.55;;;;;;;11.04;100.00;100479.50;5237678;28;20035;-79
2021/05/19 00:22:46;;;;;;;15.68;11.32;;;;;;;10.87;100.00;100485.44;5240098;28;20028;-80
2021/05/19 00:25:17;;;;;;;15.05;10.52;;;;;;;10.85;100.00;100482.03;5246644;28;20100;-79
2021/05/19 00:27:48;;;;;;;14.02;10.70;;;;;;;10.91;100.00;100487.03;5247444;28;20588;-82
2021/05/19 00:30:20;;;;;;;15.93;10.60;;;;;;;10.97;100.00;100486.78;5227581;28;20107;-80
2021/05/19 00:32:50;;;;;;;16.50;11.15;;;;;;;10.69;100.00;100489.59;5246533;28;20024;-79
2021/05/19 00:35:21;;;;;;;18.20;11.27;;;;;;;10.53;100.00;100490.22;5228865;28;20055;-80
2021/05/19 00:37:51;;;;;;;16.73;11.60;;;;;;;10.69;100.00;100486.13;5253367;28;20115;-79
2021/05/19 00:40:21;;;;;;;15.10;10.90;;;;;;;10.61;100.00;100490.78;5251797;28;20022;-79
2021/05/19 00:42:53;;;;;;;13.88;10.70;;;;;;;10.59;100.00;100490.00;5247720;28;20024;-79
2021/05/19 00:45:24;;;;;;;13.20;10.43;;;;;;;10.61;100.00;100496.00;5249384;28;20107;-80
2021/05/19 00:47:55;;;;;;;14.52;10.60;;;;;;;10.59;100.00;100492.59;5247601;28;20560;-81
2021/05/19 00:50:28;;;;;;;13.60;10.07;;;;;;;10.47;100.00;100499.13;5244176;28;20107;-79
2021/05/19 00:52:59;;;;;;;16.05;10.60;;;;;;;10.36;100.00;100497.81;5238933;28;20498;-80
2021/05/19 00:55:29;;;;;;;13.68;10.18;;;;;;;10.29;100.00;100491.09;5240829;28;20031;-80
2021/05/19 00:58:00;;;;;;;14.48;10.05;;;;;;;10.27;100.00;100498.13;5238645;28;20032;-80
2021/05/19 01:00:32;;;;;;;14.98;11.27;;;;;;;10.37;100.00;100494.31;5252365;28;20020;-79
2021/05/19 01:03:03;;;;;;;13.73;10.50;;;;;;;10.30;100.00;100493.66;5252675;28;20059;-82
2021/05/19 01:10:55;;;;;;;16.67;10.80;;;;;;;10.25;100.00;100486.88;5248725;28;20050;-80
2021/05/19 01:13:25;;;;;;;13.10;10.40;;;;;;;10.22;100.00;100489.63;5249440;28;20047;-81
2021/05/19 01:15:55;;;;;;;14.23;10.30;;;;;;;10.11;100.00;100486.53;5236828;28;20016;-80
2021/05/19 01:18:27;;;;;;;13.20;10.23;;;;;;;9.83;100.00;100496.19;5259159;28;20048;-81
2021/05/19 01:20:58;;;;;;;13.13;10.15;;;;;;;9.84;100.00;100496.13;5250380;28;20413;-82
2021/05/19 01:23:30;;;;;;;11.75;8.60;;;;;;;8.90;100.00;100499.19;5237860;28;20036;-81
2021/05/19 01:26:02;;;;;;;12.55;9.20;;;;;;;8.72;100.00;100507.56;5253401;28;20025;-79
2021/05/19 01:28:33;;;;;;;11.18;8.82;;;;;;;8.76;100.00;100500.53;5255678;28;20028;-79
2021/05/19 01:31:04;;;;;;;11.55;9.18;;;;;;;8.60;100.00;100500.13;5254122;28;20386;-81
2021/05/19 01:33:34;;;;;;;12.65;9.07;;;;;;;8.85;100.00;100505.44;5238221;28;20028;-79
2021/05/19 01:36:06;;;;;;;13.25;9.45;;;;;;;8.84;100.00;100495.94;5248759;28;20502;-79
2021/05/19 01:38:37;;;;;;;11.57;9.55;;;;;;;8.87;100.00;100499.31;5246165;28;20025;-80
2021/05/19 01:41:07;;;;;;;14.07;9.98;;;;;;;8.69;100.00;100499.84;5254494;28;20040;-80
2021/05/19 01:43:38;;;;;;;19.17;12.18;;;;;;;8.78;100.00;100499.59;5228859;28;20478;-80
2021/05/19 01:46:08;;;;;;;15.93;12.82;;;;;;;8.76;100.00;100501.34;5253636;28;20108;-80
2021/05/19 01:48:39;;;;;;;14.85;11.55;;;;;;;8.74;100.00;100503.16;5235214;28;20040;-80
2021/05/19 01:51:10;;;;;;;17.27;12.02;;;;;;;8.76;100.00;100514.38;5225356;28;20025;-80
2021/05/19 01:53:40;;;;;;;16.25;11.45;;;;;;;8.73;100.00;100511.88;5237289;28;20028;-82
2021/05/19 01:56:11;;;;;;;18.70;13.07;;;;;;;8.91;100.00;100508.72;5239524;28;20453;-80
2021/05/19 01:58:41;;;;;;;15.35;12.30;;;;;;;8.85;100.00;100511.53;5266936;28;20594;-80
2021/05/19 02:01:11;;;;;;;18.77;12.77;;;;;;;8.81;100.00;100514.25;5243509;28;20601;-81
2021/05/19 02:03:42;;;;;;;15.73;11.68;;;;;;;8.68;100.00;100513.78;5250159;28;20028;-80
2021/05/19 02:06:12;;;;;;;16.52;12.38;;;;;;;8.74;100.00;100505.75;5245727;28;20059;-80
2021/05/19 02:08:42;;;;;;;14.82;11.23;;;;;;;8.90;100.00;100509.63;5245681;28;20127;-82
2021/05/19 02:11:13;;;;;;;14.75;10.95;;;;;;;8.89;100.00;100520.94;5257489;28;20034;-81
2021/05/19 02:13:43;;;;;;;14.20;11.43;;;;;;;8.85;100.00;100526.28;5245116;28;20411;-80
2021/05/19 02:16:13;;;;;;;16.42;11.80;;;;;;;9.05;100.00;100526.59;5245687;28;20056;-81
2021/05/19 02:18:45;;;;;;;17.00;12.00;;;;;;;9.02;100.00;100519.69;5249343;28;20389;-80
2021/05/19 02:21:15;;;;;;;14.77;11.35;;;;;;;8.98;100.00;100530.25;5233606;28;20031;-80
2021/05/19 02:23:45;;;;;;;15.63;11.70;;;;;;;8.74;100.00;100529.22;5244647;28;20028;-82
2021/05/19 02:26:16;;;;;;;19.75;13.00;;;;;;;8.85;100.00;100528.91;5257423;28;20554;-80
2021/05/19 02:28:46;;;;;;;18.15;13.75;;;;;;;8.83;100.00;100539.38;5248315;28;20925;-80
2021/05/19 02:31:16;;;;;;;15.07;12.20;;;;;;;9.06;100.00;100531.72;5244696;28;20024;-80
2021/05/19 02:33:47;;;;;;;15.48;12.00;;;;;;;9.28;100.00;100530.19;5225990;28;20020;-80
2021/05/19 02:36:17;;;;;;;15.90;11.93;;;;;;;9.23;100.00;100526.84;5245086;28;20032;-83
2021/05/19 02:38:47;;;;;;;17.70;12.85;;;;;;;9.14;100.00;100530.59;5245275;28;20066;-81
2021/05/19 02:41:18;;;;;;;16.95;12.68;;;;;;;9.32;100.00;100535.25;5244811;28;20475;-82
2021/05/19 02:43:48;;;;;;;16.25;12.07;;;;;;;9.50;100.00;100532.06;5245015;28;20541;-80
2021/05/19 02:46:19;;;;;;;17.63;12.23;;;;;;;9.33;100.00;100528.28;5245077;28;20040;-80
2021/05/19 02:48:49;;;;;;;13.70;9.13;;;;;;;8.70;100.00;100532.81;5244758;28;20052;-80
2021/05/19 02:51:19;;;;;;;17.55;12.05;;;;;;;8.56;100.00;100529.75;5244645;28;20020;-80
2021/05/19 02:53:50;;;;;;;16.67;11.32;;;;;;;9.00;100.00;100537.13;5237202;28;20139;-81
2021/05/19 02:56:20;;;;;;;13.02;10.05;;;;;;;9.03;100.00;100531.81;5244922;28;20078;-80
2021/05/19 02:58:50;;;;;;;14.48;9.32;;;;;;;9.00;100.00;100531.06;5244828;28;20032;-81
2021/05/19 03:01:21;;;;;;;14.13;9.43;;;;;;;8.94;100.00;100532.13;5226114;28;20036;-81
2021/05/19 03:03:51;;;;;;;15.07;9.85;;;;;;;8.92;100.00;100533.06;5244534;28;20502;-82
2021/05/19 03:06:23;;;;;;;13.35;10.55;;;;;;;8.86;100.00;100534.06;5244253;28;20024;-82
2021/05/19 03:08:54;;;;;;;12.90;10.20;;;;;;;9.06;100.00;100534.34;5248661;28;20016;-81
2021/05/19 03:11:24;;;;;;;14.38;10.38;;;;;;;9.22;100.00;100532.97;5245603;28;20016;-80
2021/05/19 03:13:54;;;;;;;12.55;10.23;;;;;;;9.10;100.00;100532.50;5246066;28;20033;-82
2021/05/19 03:16:26;;;;;;;13.27;10.70;;;;;;;9.29;100.00;100531.91;5245321;28;20055;-82
2021/05/19 03:18:57;;;;;;;13.80;10.43;;;;;;;9.32;100.00;100539.63;5244054;28;20021;-81
2021/05/19 03:21:27;;;;;;;15.63;12.18;;;;;;;9.41;100.00;100532.38;5256395;28;20031;-80
2021/05/19 03:23:58;;;;;;;17.70;12.73;;;;;;;9.44;100.00;100534.00;5249990;28;20064;-80
2021/05/19 03:26:28;;;;;;;16.75;12.82;;;;;;;9.57;100.00;100540.53;5243917;28;20181;-80
2021/05/19 03:28:58;;;;;;;21.55;13.60;;;;;;;9.60;100.00;100546.53;5244184;28;20016;-80
2021/05/19 03:31:29;;;;;;;16.13;12.50;;;;;;;9.66;100.00;100541.09;5252100;28;20024;-80
2021/05/19 03:33:59;;;;;;;14.75;11.75;;;;;;;9.79;100.00;100549.41;5242916;28;20048;-81
2021/05/19 03:36:29;;;;;;;16.90;12.68;;;;;;;9.69;100.00;100542.75;5243753;28;20073;-80
2021/05/19 03:39:00;;;;;;;17.05;13.43;;;;;;;9.60;100.00;100545.66;5244014;28;20056;-80
2021/05/19 03:41:30;;;;;;;17.73;13.18;;;;;;;9.71;100.00;100544.44;5247962;28;20567;-82
2021/05/19 03:44:00;;;;;;;18.95;13.48;;;;;;;9.88;100.00;100555.19;5246614;28;20670;-81
2021/05/19 03:46:31;;;;;;;17.42;13.55;;;;;;;9.76;100.00;100555.56;5264605;28;20547;-82
2021/05/19 03:49:02;;;;;;;19.50;13.95;;;;;;;9.61;100.00;100552.56;5264905;28;20050;-80
2021/05/19 03:51:33;;;;;;;19.13;14.43;;;;;;;9.59;100.00;100559.59;5264290;28;20016;-82
2021/05/19 03:54:04;;;;;;;20.38;14.50;;;;;;;9.47;100.00;100554.81;5256998;28;20067;-81
2021/05/19 03:56:34;;;;;;;23.98;13.25;;;;;;;9.54;100.00;100553.69;5243834;28;20107;-82
2021/05/19 03:59:05;;;;;;;19.75;14.25;;;;;;;9.66;100.00;100555.91;5243019;28;20382;-81
2021/05/19 04:01:35;;;;;;;18.95;13.25;;;;;;;9.70;100.00;100547.09;5259913;28;20036;-81
2021/05/19 04:04:05;;;;;;;15.95;13.07;;;;;;;9.77;100.00;100553.78;5243501;28;20493;-80
2021/05/19 04:06:36;;;;;;;18.23;12.43;;;;;;;9.85;100.00;100551.81;5243131;28;20406;-80
2021/05/19 04:09:06;;;;;;;15.95;12.40;;;;;;;9.48;100.00;100561.72;5257512;28;20734;-82
2021/05/19 04:11:36;;;;;;;16.83;13.05;;;;;;;9.60;100.00;100554.34;5262975;28;20030;-81
2021/05/19 04:14:10;;;;;;;19.25;13.68;;;;;;;9.42;100.00;100551.47;5243934;28;20116;-82
2021/05/19 04:16:40;;;;;;;18.70;14.02;;;;;;;9.36;100.00;100567.31;5251996;28;20091;-80
2021/05/19 04:19:11;;;;;;;16.27;13.18;;;;;;;9.40;100.00;100563.69;5231912;28;20120;-82
2021/05/19 04:21:41;;;;;;;19.92;13.25;;;;;;;9.47;100.00;100562.63;5222586;28;20405;-83
2021/05/19 04:24:12;;;;;;;21.00;14.85;;;;;;;9.54;100.00;100571.94;5241882;28;20115;-81
2021/05/19 04:26:42;;;;;;;18.80;14.00;;;;;;;9.66;100.00;100571.56;5241132;28;20032;-80
2021/05/19 04:29:12;;;;;;;19.27;14.00;;;;;;;9.68;100.00;100581.03;5247422;28;20097;-80
2021/05/19 04:31:42;;;;;;;19.95;14.70;;;;;;;9.66;100.00;100576.78;5264253;28;20028;-81
2021/05/19 04:34:13;;;;;;;23.52;15.20;;;;;;;9.82;100.00;100578.84;5252213;28;20213;-81
2021/05/19 04:36:43;;;;;;;19.10;14.63;;;;;;;10.19;100.00;100583.75;5254982;28;20020;-81
2021/05/19 04:39:13;;;;;;;17.85;14.68;;;;;;;10.20;100.00;100583.69;5246045;28;20032;-80
2021/05/19 04:41:44;;;;;;;19.98;14.57;;;;;;;10.11;100.00;100583.13;5228825;28;20016;-81
2021/05/19 04:44:14;;;;;;;19.10;15.15;;;;;;;10.37;100.00;100583.97;5247274;28;20033;-82
2021/05/19 04:46:44;;;;;;;19.23;13.80;;;;;;;10.33;100.00;100591.97;5253346;28;20024;-82
2021/05/19 04:49:15;;;;;;;18.48;13.80;;;;;;;10.40;100.00;100589.09;5265216;28;20084;-82
2021/05/19 04:51:45;;;;;;;17.20;13.13;;;;;;;10.53;100.00;100590.34;5259678;28;20021;-83
2021/05/19 04:54:16;;;;;;;19.90;14.57;;;;;;;10.56;100.00;100594.63;5250590;28;20027;-81
2021/05/19 04:56:46;;;;;;;19.33;14.48;;;;;;;10.56;100.00;100592.03;5248694;28;20016;-82
2021/05/19 04:59:17;;;;;;;23.45;15.88;;;;;;;10.52;100.00;100599.09;5217801;28;20088;-81
2021/05/19 05:01:47;;;;;;;21.25;15.27;;;;;;;10.41;100.00;100606.47;5247296;28;20033;-81
2021/05/19 05:04:17;;;;;;;22.88;16.23;;;;;;;10.57;100.00;100609.41;5256035;28;20058;-83
2021/05/19 05:06:48;;;;;;;18.50;14.70;;;;;;;10.77;100.00;100606.94;5245495;28;20537;-82
2021/05/19 05:09:18;;;;;;;20.42;15.20;;;;;;;10.88;100.00;100602.19;5228100;28;20556;-81
2021/05/19 05:11:48;;;;;;;17.80;13.98;;;;;;;10.79;100.00;100605.13;5251424;28;20440;-80
2021/05/19 05:14:19;;;;;;;18.40;14.48;;;;;;;10.91;100.00;100610.78;5256896;28;20171;-80
2021/05/19 05:16:49;;;;;;;22.48;14.57;;;;;;;11.08;100.00;100608.41;5263413;28;20235;-80
2021/05/19 05:19:19;;;;;;;18.67;14.13;;;;;;;11.13;100.00;100616.91;5254485;28;20108;-80
2021/05/19 05:21:50;;;;;;;20.60;15.18;;;;;;;10.89;100.00;100616.97;5246803;28;20085;-82
2021/05/19 05:24:20;;;;;;;20.80;15.02;;;;;;;10.78;100.00;100617.34;5253394;28;20478;-81
2021/05/19 05:26:50;;;;;;;21.17;15.38;;;;;;;11.03;100.00;100619.03;5239941;28;20029;-82
2021/05/19 05:29:21;;;;;;;21.33;14.98;;;;;;;11.04;100.00;100622.47;5244788;28;20056;-80
2021/05/19 05:31:51;;;;;;;18.33;13.90;;;;;;;11.18;100.00;100618.47;5239504;28;20029;-80
2021/05/19 05:34:21;;;;;;;20.80;15.07;;;;;;;11.27;100.00;100627.72;5244580;28;20103;-79
2021/05/19 05:36:52;;;;;;;24.10;15.32;;;;;;;11.42;100.00;100619.31;5252775;28;20086;-81
2021/05/19 05:39:22;;;;;;;19.10;15.25;;;;;;;11.48;100.00;100632.13;5224575;28;20024;-81
2021/05/19 05:41:52;;;;;;;24.45;15.38;;;;;;;11.39;100.00;100625.50;5252855;28;20064;-79
2021/05/19 05:44:23;;;;;;;23.15;16.02;;;;;;;11.51;100.00;100626.78;5258188;28;20085;-80
2021/05/19 05:46:53;;;;;;;21.08;14.77;;;;;;;11.65;100.00;100630.59;5249038;28;20462;-79
2021/05/19 05:49:24;;;;;;;24.30;18.15;;;;;;;11.44;100.00;100633.19;5247075;28;21362;-80
2021/05/19 05:51:54;;;;;;;26.80;18.20;;;;;;;11.33;100.00;100637.94;5244114;28;20024;-81
2021/05/19 05:54:24;;;;;;;28.50;19.38;;;;;;;11.47;100.00;100636.50;5254685;28;20024;-81
2021/05/19 05:56:56;;;;;;;27.95;19.83;;;;;;;11.41;100.00;100641.97;5259567;28;20024;-81
2021/05/19 05:59:27;;;;;;;29.13;19.55;;;;;;;11.46;100.00;100636.59;5258465;28;20258;-80
2021/05/19 06:01:57;;;;;;;27.23;19.35;;;;;;;11.50;100.00;100640.78;5253387;28;20084;-81
2021/05/19 06:04:27;;;;;;;30.42;20.02;;;;;;;11.39;100.00;100648.16;5243563;28;20044;-80
2021/05/19 06:06:58;;;;;;;24.25;19.10;;;;;;;11.45;100.00;100638.34;5254660;28;20032;-80
2021/05/19 06:09:28;;;;;;;27.33;19.95;;;;;;;11.62;100.00;100649.03;5254251;28;20035;-80
2021/05/19 06:11:58;;;;;;;27.77;20.25;;;;;;;11.59;100.00;100643.94;5252988;28;20073;-79
2021/05/19 06:14:29;;;;;;;29.35;20.27;;;;;;;11.72;100.00;100645.16;5258022;28;20529;-81
2021/05/19 06:17:02;;;;;;;27.88;20.73;;;;;;;11.40;100.00;100655.09;5255625;28;20035;-82
2021/05/19 06:19:32;;;;;;;26.38;20.92;;;;;;;11.67;100.00;100647.13;5255623;28;20422;-82
2021/05/19 06:22:03;;;;;;;28.17;21.25;;;;;;;11.61;100.00;100649.13;5257576;28;20039;-81
2021/05/19 06:24:33;;;;;;;30.38;21.92;;;;;;;11.43;100.00;100662.88;5255427;28;20119;-82
2021/05/19 06:27:04;;;;;;;26.45;21.10;;;;;;;11.44;100.00;100662.78;5255709;28;20036;-83
2021/05/19 06:29:34;;;;;;;29.55;21.90;;;;;;;11.39;100.00;100663.88;5256870;28;20059;-82
2021/05/19 06:32:05;;;;;;;27.50;20.90;;;;;;;11.54;100.00;100663.28;5255014;28;20032;-81
2021/05/19 06:34:36;;;;;;;27.40;19.52;;;;;;;11.61;100.00;100659.59;5252768;28;20611;-81
2021/05/19 06:37:06;;;;;;;27.67;20.15;;;;;;;11.70;100.00;100659.22;5253057;28;20035;-81
2021/05/19 06:39:37;;;;;;;26.27;19.88;;;;;;;12.11;100.00;100659.28;5251382;28;20477;-82
2021/05/19 06:42:07;;;;;;;29.58;18.85;;;;;;;12.34;98.59;100659.22;5246098;28;20429;-83
2021/05/19 06:44:38;;;;;;;26.08;18.40;;;;;;;12.25;99.41;100663.97;5245866;28;20029;-81
2021/05/19 06:47:08;;;;;;;23.13;18.33;;;;;;;12.50;97.46;100665.50;5246185;28;20028;-82
2021/05/19 06:49:38;;;;;;;26.48;18.88;;;;;;;12.71;96.99;100656.75;5250613;28;20069;-81
2021/05/19 06:52:09;;;;;;;22.85;16.75;;;;;;;13.06;95.86;100661.34;5255243;28;20053;-82
2021/05/19 06:54:39;;;;;;;24.38;18.00;;;;;;;13.50;93.06;100660.19;5254507;28;20020;-82
2021/05/19 06:57:10;;;;;;;23.60;17.17;;;;;;;13.90;91.43;100657.41;5254636;28;20024;-83
2021/05/19 06:59:40;;;;;;;22.90;16.25;;;;;;;13.73;89.79;100655.56;5254567;28;20025;-82
2021/05/19 07:02:11;;;;;;;24.92;16.88;;;;;;;14.43;88.13;100653.88;5251052;28;20047;-83
2021/05/19 07:04:41;;;;;;;23.50;16.17;;;;;;;14.59;86.38;100656.59;5252658;28;20642;-82
2021/05/19 07:07:11;;;;;;;19.93;15.97;;;;;;;15.03;85.68;100646.34;5254379;28;20039;-82
2021/05/19 07:09:42;;;;;;;21.00;15.65;;;;;;;15.96;81.37;100646.47;5235608;28;20325;-83
2021/05/19 07:12:12;;;;;;;17.67;14.77;;;;;;;16.13;80.11;100642.88;5251650;28;20075;-82
2021/05/19 07:14:47;;;;;;;20.52;14.35;;;;;;;17.56;74.71;100651.75;5249761;28;20024;-82
2021/05/19 07:17:17;;;;;;;20.45;14.00;;;;;;;15.82;77.14;100651.66;5245649;28;20094;-81
2021/05/19 07:19:48;;;;;;;17.65;13.48;;;;;;;17.24;75.94;100651.09;5254801;28;20028;-83
2021/05/19 07:22:18;;;;;;;14.10;11.38;;;;;;;18.71;69.79;100653.84;5253727;28;20039;-83
2021/05/19 07:24:50;;;;;;;13.90;10.70;;;;;;;18.83;68.27;100646.78;5254319;28;20460;-83
2021/05/19 07:27:21;;;;;;;13.27;9.85;;;;;;;19.27;65.14;100644.56;5252100;28;20029;-82
2021/05/19 07:29:52;;;;;;;12.23;10.23;;;;;;;17.43;71.00;100653.47;5248995;28;20058;-83
2021/05/19 07:32:23;;;;;;;12.77;10.57;;;;;;;18.71;69.62;100652.03;5252450;28;20489;-83
2021/05/19 07:34:53;;;;;;;13.30;10.45;;;;;;;18.01;71.80;100652.31;5248827;28;20023;-83
2021/05/19 07:37:24;;;;;;;14.77;10.77;;;;;;;16.47;74.54;100659.34;5250618;28;20382;-82
2021/05/19 07:39:54;;;;;;;16.88;11.93;;;;;;;15.23;78.79;100661.94;5250171;28;20024;-84
2021/05/19 07:42:24;;;;;;;14.95;11.40;;;;;;;15.46;78.43;100660.72;5241852;28;20069;-82
2021/05/19 07:44:54;;;;;;;17.35;13.02;;;;;;;15.04;80.69;100663.00;5256001;28;20044;-82
2021/05/19 07:47:25;;;;;;;18.02;13.82;;;;;;;14.77;83.37;100669.66;5257072;28;20052;-82
2021/05/19 07:49:55;;;;;;;19.58;14.40;;;;;;;14.52;84.65;100670.97;5253850;28;20027;-80
2021/05/19 07:52:26;;;;;;;17.45;13.48;;;;;;;14.43;86.12;100671.44;5251671;28;20398;-82
2021/05/19 07:54:56;;;;;;;20.40;14.52;;;;;;;14.61;84.76;100673.16;5256252;28;20019;-81
2021/05/19 07:57:39;;;;;;;18.87;13.90;;;;;;;14.29;85.72;100677.38;5251999;28;20032;-81
2021/05/19 08:00:16;;;;;;;16.30;12.45;;;;;;;13.56;87.83;100676.50;5250231;28;20312;-81
2021/05/19 08:02:47;;;;;;;18.35;13.23;;;;;;;13.47;88.27;100678.72;5234972;28;20486;-81
2021/05/19 08:05:17;;;;;;;17.48;13.20;;;;;;;14.88;85.15;100669.97;5250603;28;20450;-81
2021/05/19 08:07:48;;;;;;;17.17;11.88;;;;;;;16.98;77.11;100667.66;5254540;28;20055;-82
2021/05/19 08:10:18;;;;;;;13.53;10.73;;;;;;;17.36;73.85;100660.94;5252653;28;20048;-82
2021/05/19 08:12:48;;;;;;;14.52;11.38;;;;;;;17.19;75.47;100660.25;5257890;28;20278;-82
2021/05/19 08:15:20;;;;;;;15.30;11.18;;;;;;;17.60;74.08;100661.19;5256488;28;20097;-82
2021/05/19 08:17:50;;;;;;;11.88;10.07;;;;;;;18.65;71.43;100655.09;5256376;28;20036;-81
2021/05/19 08:20:20;;;;;;;12.63;9.32;;;;;;;21.04;64.73;100649.91;5263610;28;20032;-81
2021/05/19 08:22:51;;;;;;;12.15;9.25;;;;;;;19.78;63.80;100659.44;5258038;28;20040;-81
2021/05/19 08:25:22;;;;;;;10.77;8.93;;;;;;;19.38;65.58;100657.06;5258939;28;20447;-84
2021/05/19 08:27:52;;;;;;;13.13;9.77;;;;;;;20.48;63.80;100650.69;5264939;28;20036;-82
2021/05/19 08:30:24;;;;;;;10.00;8.32;;;;;;;22.43;59.09;100648.34;5255534;28;20028;-82
2021/05/19 08:32:54;;;;;;;9.75;8.27;;;;;;;23.62;57.39;100639.69;5255479;28;20032;-81
2021/05/19 08:35:24;;;;;;;10.13;8.53;;;;;;;23.99;54.36;100640.81;5250288;28;20051;-81
2021/05/19 08:37:55;;;;;;;10.20;8.77;;;;;;;21.48;60.50;100657.91;5255435;28;20024;-80
2021/05/19 08:40:27;;;;;;;11.70;9.77;;;;;;;21.43;59.04;100650.28;5254901;28;20020;-80
2021/05/19 08:42:58;;;;;;;10.18;8.38;;;;;;;21.82;59.68;100652.50;5255307;28;20278;-80
2021/05/19 08:45:29;;;;;;;8.50;7.55;;;;;;;21.89;59.17;100645.69;5255706;28;20469;-79
2021/05/19 08:48:01;;;;;;;9.25;6.93;;;;;;;21.06;61.01;100650.66;5261627;28;20507;-79
2021/05/19 08:50:33;;;;;;;9.18;6.88;;;;;;;21.47;58.60;100651.75;5260928;28;20062;-79
2021/05/19 08:53:09;;;;;;;7.72;6.32;;;;;;;21.93;58.33;100647.13;5252771;28;20474;-79
2021/05/19 08:55:40;;;;;;;8.85;6.75;;;;;;;20.22;60.36;100643.81;5252813;28;20394;-79
2021/05/19 08:58:10;;;;;;;8.63;7.20;;;;;;;21.46;57.49;100652.72;5263762;28;20036;-78
2021/05/19 09:00:40;;;;;;;8.80;6.93;;;;;;;21.28;59.53;100635.56;5256612;28;20052;-81
2021/05/19 09:03:16;;;;;;;9.98;6.88;;;;;;;21.09;57.82;100645.91;5259427;28;20100;-81
2021/05/19 09:05:50;;;;;;;7.47;6.32;;;;;;;19.92;61.54;100648.69;5252998;28;20029;-79
2021/05/19 09:08:20;;;;;;;10.02;7.13;;;;;;;18.15;64.10;100654.09;5257854;28;20119;-79
2021/05/19 09:11:03;;;;;;;8.38;6.93;;;;;;;20.02;62.38;100649.75;5260754;28;20103;-79
2021/05/19 09:13:36;;;;;;;7.28;5.97;;;;;;;21.29;59.82;100634.59;5253433;28;20025;-79
2021/05/19 09:16:08;;;;;;;6.82;4.90;;;;;;;19.95;58.60;100635.19;5259176;28;20031;-79
2021/05/19 09:18:45;;;;;;;8.18;5.13;;;;;;;20.95;58.33;100639.97;5257569;28;20111;-80
2021/05/19 09:21:36;;;;;;;6.00;4.60;;;;;;;19.99;58.79;100643.78;5260507;28;20060;-81
2021/05/19 09:24:10;;;;;;;7.78;5.68;;;;;;;18.90;61.64;100648.03;5249681;28;20505;-80
2021/05/19 09:26:51;;;;;;;6.50;5.75;;;;;;;18.70;63.64;100644.22;5255700;28;20594;-79
2021/05/19 09:29:36;;;;;;;8.02;6.38;;;;;;;17.17;65.85;100657.69;5258617;28;20397;-80
2021/05/19 09:32:12;;;;;;;9.43;6.35;;;;;;;16.94;67.51;100650.31;5256617;28;20425;-80
2021/05/19 09:34:44;;;;;;;9.40;6.35;;;;;;;16.70;69.46;100660.66;5254125;28;20032;-78
2021/05/19 09:37:29;;;;;;;8.45;7.00;;;;;;;16.09;71.81;100655.41;5239692;28;20028;-78
2021/05/19 09:40:08;;;;;;;8.82;6.80;;;;;;;18.28;69.40;100647.06;5251125;28;20111;-80
2021/05/19 09:42:46;;;;;;;9.55;6.43;;;;;;;17.69;68.53;100645.59;5255741;28;20054;-79
2021/05/19 09:45:25;;;;;;;11.13;6.47;;;;;;;19.77;66.43;100633.88;5256476;28;20024;-79
2021/05/19 09:47:57;;;;;;;9.63;5.85;;;;;;;21.33;61.06;100627.19;5255239;28;20028;-79
2021/05/19 09:50:33;;;;;;;7.82;5.30;;;;;;;22.00;59.95;100624.38;5256281;28;20386;-79
2021/05/19 09:53:11;;;;;;;6.78;5.10;;;;;;;21.27;56.68;100633.84;5257020;28;20055;-79
2021/05/19 09:55:50;;;;;;;7.57;4.90;;;;;;;20.80;57.52;100633.16;5256477;28;20023;-79
2021/05/19 09:58:33;;;;;;;7.25;5.22;;;;;;;21.00;56.47;100629.84;5257835;28;20028;-79
2021/05/19 10:01:04;;;;;;;8.70;4.85;;;;;;;21.18;56.36;100628.41;5251346;28;20056;-79
2021/05/19 10:03:37;;;;;;;8.02;4.20;;;;;;;20.83;56.97;100623.19;5253046;28;20158;-80
2021/05/19 10:06:15;;;;;;;5.72;4.32;;;;;;;19.89;57.75;100625.03;5256329;28;20052;-79
2021/05/19 10:08:49;;;;;;;5.97;3.92;;;;;;;20.36;55.44;100629.50;5256839;28;20021;-79
2021/05/19 10:11:20;;;;;;;8.80;3.80;;;;;;;19.80;56.77;100625.69;5254193;28;20028;-78
2021/05/19 10:13:51;;;;;;;8.27;5.38;;;;;;;18.72;60.18;100626.41;5256675;28;20281;-79
2021/05/19 10:16:22;;;;;;;7.00;4.53;;;;;;;19.03;61.11;100622.41;5254441;28;20047;-79
2021/05/19 10:18:56;;;;;;;7.80;4.78;;;;;;;19.39;60.47;100625.16;5257678;28;20031;-80
2021/05/19 10:21:30;;;;;;;5.88;4.32;;;;;;;18.63;60.20;100619.06;5254693;28;20527;-80
2021/05/19 10:24:13;;;;;;;5.97;4.50;;;;;;;18.18;61.35;100619.50;5247171;28;20486;-80
2021/05/19 10:27:07;;;;;;;6.28;4.18;;;;;;;18.06;62.97;100617.63;5257900;28;20221;-81
2021/05/19 10:29:56;;;;;;;7.63;4.50;;;;;;;17.11;63.85;100617.63;5255020;28;20024;-81
2021/05/19 10:32:35;;;;;;;5.70;3.15;;;;;;;17.55;61.37;100616.56;5244228;28;20021;-80
2021/05/19 10:35:08;;;;;;;6.05;2.90;;;;;;;17.36;59.20;100616.03;5245203;28;20107;-80
2021/05/19 10:37:54;;;;;;;3.35;2.05;;;;;;;17.78;58.09;100617.72;5238992;28;20035;-81
2021/05/19 10:40:28;;;;;;;4.35;3.13;;;;;;;18.08;57.63;100613.09;5256784;28;20019;-81
2021/05/19 10:43:01;;;;;;;5.65;3.63;;;;;;;18.34;58.64;100612.28;5219898;28;20040;-82
2021/05/19 10:45:47;;;;;;;4.22;3.03;;;;;;;18.05;59.01;100615.94;5248711;28;20378;-80
2021/05/19 10:48:35;;;;;;;4.95;3.15;;;;;;;18.26;60.18;100611.88;5250621;28;20032;-81
2021/05/19 10:51:35;;;;;;;5.55;3.28;;;;;;;18.15;59.49;100614.41;5248951;28;20024;-82
2021/05/19 10:57:20;;;;;;;6.35;3.40;;;;;;;18.33;59.68;100608.75;5253872;28;20090;-82
2021/05/19 11:00:09;;;;;;;6.38;3.40;;;;;;;17.99;59.60;100611.06;5255500;28;20023;-82
2021/05/19 11:02:52;;;;;;;7.13;3.70;;;;;;;17.92;61.51;100615.91;5251925;28;20047;-82
2021/05/19 11:05:32;;;;;;;6.63;3.50;;;;;;;17.53;59.84;100614.97;5233368;28;20111;-82
2021/05/19 11:08:10;;;;;;;6.32;3.55;;;;;;;17.76;61.06;100614.31;5250362;28;20040;-82
2021/05/19 11:10:54;;;;;;;5.68;3.08;;;;;;;17.89;62.46;100609.94;5250452;28;20013;-82
2021/05/19 11:13:24;;;;;;;4.45;3.15;;;;;;;17.67;60.02;100609.66;5256414;28;20020;-82
2021/05/19 11:21:18;;;;;;;5.78;3.30;;;;;;;18.57;59.59;100596.53;5254287;28;20280;-82
2021/05/19 11:24:12;;;;;;;4.50;2.80;;;;;;;19.05;59.54;100591.34;5254979;28;20130;-83
2021/05/19 11:26:44;;;;;;;4.65;2.92;;;;;;;19.00;58.50;100590.84;5252160;28;20024;-82
2021/05/19 11:29:25;;;;;;;4.28;2.70;;;;;;;18.68;57.44;100594.00;5255626;28;20494;-82
2021/05/19 11:31:57;;;;;;;4.55;2.72;;;;;;;18.47;57.51;100595.44;5245870;28;20178;-81
2021/05/19 11:34:27;;;;;;;5.90;2.90;;;;;;;18.43;58.47;100587.81;5244668;28;20027;-82
2021/05/19 11:36:59;;;;;;;4.57;2.70;;;;;;;17.94;59.53;100594.63;5256820;28;20028;-82
2021/05/19 11:39:34;;;;;;;4.10;2.30;;;;;;;18.36;57.74;100583.91;5251986;28;20029;-82
2021/05/19 11:42:26;;;;;;;3.72;2.00;;;;;;;18.72;61.11;100586.69;5252061;28;20039;-81
2021/05/19 11:45:06;;;;;;;2.88;1.95;;;;;;;18.18;57.33;100588.56;5256139;28;20024;-81
2021/05/19 11:47:38;;;;;;;6.03;1.80;;;;;;;18.23;56.81;100593.56;5235437;28;20027;-81